sensor_id;sensor_type;location;lat;lon;timestamp;pressure;altitude;pressure_sealevel;temperature;humidity
4705;BME280;2366;51.332;6.610;2023-06-22T00:01:56;101639.66;;;25.90;48.92
4705;BME280;2366;51.332;6.610;2023-06-22T00:04:21;101630.13;;;25.86;49.27
4705;BME280;2366;51.332;6.610;2023-06-22T00:06:48;101628.44;;;25.76;49.46
4705;BME280;2366;51.332;6.610;2023-06-22T00:09:13;101641.00;;;25.77;49.79
4705;BME280;2366;51.332;6.610;2023-06-22T00:11:39;101642.66;;;25.78;49.72
4705;BME280;2366;51.332;6.610;2023-06-22T00:14:04;101635.91;;;25.74;49.73
4705;BME280;2366;51.332;6.610;2023-06-22T00:16:31;101632.84;;;25.69;50.03
4705;BME280;2366;51.332;6.610;2023-06-22T00:18:57;101633.19;;;25.66;50.17
4705;BME280;2366;51.332;6.610;2023-06-22T00:21:26;101642.03;;;25.68;50.08
4705;BME280;2366;51.332;6.610;2023-06-22T00:23:51;101638.28;;;25.69;50.10
4705;BME280;2366;51.332;6.610;2023-06-22T00:26:17;101634.03;;;25.67;50.27
4705;BME280;2366;51.332;6.610;2023-06-22T00:28:42;101632.34;;;25.66;50.33
4705;BME280;2366;51.332;6.610;2023-06-22T00:31:07;101632.34;;;25.66;50.24
4705;BME280;2366;51.332;6.610;2023-06-22T00:33:33;101624.72;;;25.61;50.41
4705;BME280;2366;51.332;6.610;2023-06-22T00:35:58;101632.34;;;25.57;50.66
4705;BME280;2366;51.332;6.610;2023-06-22T00:38:23;101620.66;;;25.57;50.86
4705;BME280;2366;51.332;6.610;2023-06-22T00:40:49;101628.44;;;25.52;50.79
4705;BME280;2366;51.332;6.610;2023-06-22T00:43:14;101622.53;;;25.48;51.01
4705;BME280;2366;51.332;6.610;2023-06-22T00:45:40;101625.25;;;25.48;51.13
4705;BME280;2366;51.332;6.610;2023-06-22T00:48:06;101622.69;;;25.47;50.94
4705;BME280;2366;51.332;6.610;2023-06-22T00:50:33;101613.34;;;25.41;51.38
4705;BME280;2366;51.332;6.610;2023-06-22T00:53:03;101622.69;;;25.38;51.37
4705;BME280;2366;51.332;6.610;2023-06-22T00:55:38;101621.69;;;25.39;51.11
4705;BME280;2366;51.332;6.610;2023-06-22T00:58:06;101620.66;;;25.40;51.39
4705;BME280;2366;51.332;6.610;2023-06-22T01:00:36;101620.66;;;25.40;51.07
4705;BME280;2366;51.332;6.610;2023-06-22T01:03:02;101617.94;;;25.40;51.24
4705;BME280;2366;51.332;6.610;2023-06-22T01:05:27;101617.09;;;25.40;51.20
4705;BME280;2366;51.332;6.610;2023-06-22T01:08:22;101621.34;;;25.34;51.00
4705;BME280;2366;51.332;6.610;2023-06-22T01:10:54;101611.50;;;25.33;51.13
4705;BME280;2366;51.332;6.610;2023-06-22T01:15:53;101606.94;;;25.34;51.21
4705;BME280;2366;51.332;6.610;2023-06-22T01:18:22;101604.53;;;25.31;51.29
4705;BME280;2366;51.332;6.610;2023-06-22T01:20:54;101601.34;;;25.27;51.30
4705;BME280;2366;51.332;6.610;2023-06-22T01:28:57;101595.22;;;25.25;51.48
4705;BME280;2366;51.332;6.610;2023-06-22T01:31:27;101599.63;;;25.26;51.78
4705;BME280;2366;51.332;6.610;2023-06-22T01:33:58;101596.75;;;25.28;51.77
4705;BME280;2366;51.332;6.610;2023-06-22T01:36:25;101594.19;;;25.26;51.62
4705;BME280;2366;51.332;6.610;2023-06-22T01:38:51;101593.34;;;25.26;51.52
4705;BME280;2366;51.332;6.610;2023-06-22T01:41:17;101594.88;;;25.28;51.68
4705;BME280;2366;51.332;6.610;2023-06-22T01:43:45;101594.34;;;25.33;51.58
4705;BME280;2366;51.332;6.610;2023-06-22T01:46:11;101600.97;;;25.30;51.70
4705;BME280;2366;51.332;6.610;2023-06-22T01:48:38;101598.25;;;25.30;51.84
4705;BME280;2366;51.332;6.610;2023-06-22T01:51:04;101597.94;;;25.33;52.07
4705;BME280;2366;51.332;6.610;2023-06-22T01:53:29;101595.41;;;25.32;51.83
4705;BME280;2366;51.332;6.610;2023-06-22T01:55:56;101593.53;;;25.32;52.05
4705;BME280;2366;51.332;6.610;2023-06-22T01:58:25;101590.63;;;25.26;52.14
4705;BME280;2366;51.332;6.610;2023-06-22T02:00:56;101585.72;;;25.21;52.44
4705;BME280;2366;51.332;6.610;2023-06-22T02:03:27;101583.53;;;25.25;52.20
4705;BME280;2366;51.332;6.610;2023-06-22T02:06:00;101579.25;;;25.14;52.66
4705;BME280;2366;51.332;6.610;2023-06-22T02:08:30;101586.34;;;25.07;52.67
4705;BME280;2366;51.332;6.610;2023-06-22T02:10:57;101580.06;;;24.98;53.21
4705;BME280;2366;51.332;6.610;2023-06-22T02:13:25;101584.31;;;24.92;53.52
4705;BME280;2366;51.332;6.610;2023-06-22T02:15:51;101576.50;;;24.89;53.49
4705;BME280;2366;51.332;6.610;2023-06-22T02:18:16;101588.53;;;24.87;53.81
4705;BME280;2366;51.332;6.610;2023-06-22T02:20:42;101585.00;;;24.86;53.86
4705;BME280;2366;51.332;6.610;2023-06-22T02:23:08;101581.75;;;24.83;53.94
4705;BME280;2366;51.332;6.610;2023-06-22T02:25:34;101578.88;;;24.84;53.94
4705;BME280;2366;51.332;6.610;2023-06-22T02:27:59;101579.22;;;24.81;54.05
4705;BME280;2366;51.332;6.610;2023-06-22T02:30:25;101578.19;;;24.82;54.15
4705;BME280;2366;51.332;6.610;2023-06-22T02:32:50;101582.41;;;24.76;54.49
4705;BME280;2366;51.332;6.610;2023-06-22T02:35:29;101578.84;;;24.76;54.43
4705;BME280;2366;51.332;6.610;2023-06-22T02:38:01;101569.88;;;24.75;54.33
4705;BME280;2366;51.332;6.610;2023-06-22T02:40:27;101579.22;;;24.73;54.66
4705;BME280;2366;51.332;6.610;2023-06-22T02:42:53;101573.09;;;24.71;54.62
4705;BME280;2366;51.332;6.610;2023-06-22T02:45:18;101574.97;;;24.70;54.81
4705;BME280;2366;51.332;6.610;2023-06-22T02:47:44;101564.97;;;24.71;54.93
4705;BME280;2366;51.332;6.610;2023-06-22T02:50:09;101569.38;;;24.72;54.85
4705;BME280;2366;51.332;6.610;2023-06-22T02:52:35;101566.84;;;24.70;54.76
4705;BME280;2366;51.332;6.610;2023-06-22T02:55:00;101563.75;;;24.65;55.02
4705;BME280;2366;51.332;6.610;2023-06-22T02:57:25;101564.94;;;24.63;55.32
4705;BME280;2366;51.332;6.610;2023-06-22T02:59:51;101559.19;;;24.57;55.36
4705;BME280;2366;51.332;6.610;2023-06-22T03:02:16;101562.91;;;24.56;55.49
4705;BME280;2366;51.332;6.610;2023-06-22T03:04:42;101563.09;;;24.55;55.62
4705;BME280;2366;51.332;6.610;2023-06-22T03:07:08;101559.50;;;24.54;55.58
4705;BME280;2366;51.332;6.610;2023-06-22T03:09:33;101556.56;;;24.48;55.93
4705;BME280;2366;51.332;6.610;2023-06-22T03:11:59;101551.66;;;24.43;56.17
4705;BME280;2366;51.332;6.610;2023-06-22T03:14:30;101548.59;;;24.46;55.82
4705;BME280;2366;51.332;6.610;2023-06-22T03:16:56;101544.06;;;24.47;55.84
4705;BME280;2366;51.332;6.610;2023-06-22T03:19:26;101546.06;;;24.45;55.93
4705;BME280;2366;51.332;6.610;2023-06-22T03:21:53;101546.59;;;24.48;55.88
4705;BME280;2366;51.332;6.610;2023-06-22T03:24:18;101542.56;;;24.52;55.66
4705;BME280;2366;51.332;6.610;2023-06-22T03:26:44;101543.25;;;24.54;56.06
4705;BME280;2366;51.332;6.610;2023-06-22T03:29:11;101539.84;;;24.52;56.12
4705;BME280;2366;51.332;6.610;2023-06-22T03:31:36;101531.69;;;24.44;56.46
4705;BME280;2366;51.332;6.610;2023-06-22T03:34:02;101521.06;;;24.51;56.40
4705;BME280;2366;51.332;6.610;2023-06-22T03:36:27;101523.09;;;24.49;56.72
4705;BME280;2366;51.332;6.610;2023-06-22T03:38:53;101526.28;;;24.52;56.69
4705;BME280;2366;51.332;6.610;2023-06-22T03:41:18;101509.53;;;24.49;56.82
4705;BME280;2366;51.332;6.610;2023-06-22T03:43:43;101517.47;;;24.50;56.82
4705;BME280;2366;51.332;6.610;2023-06-22T03:46:09;101509.81;;;24.46;56.99
4705;BME280;2366;51.332;6.610;2023-06-22T03:48:34;101503.63;;;24.53;56.74
4705;BME280;2366;51.332;6.610;2023-06-22T03:51:00;101507.34;;;24.60;56.66
4705;BME280;2366;51.332;6.610;2023-06-22T03:53:26;101513.78;;;24.68;56.64
4705;BME280;2366;51.332;6.610;2023-06-22T03:55:52;101509.06;;;24.86;55.68
4705;BME280;2366;51.332;6.610;2023-06-22T03:58:19;101516.88;;;25.14;55.38
4705;BME280;2366;51.332;6.610;2023-06-22T04:00:46;101518.22;;;25.42;54.65
4705;BME280;2366;51.332;6.610;2023-06-22T04:03:12;101521.94;;;25.50;53.93
4705;BME280;2366;51.332;6.610;2023-06-22T04:05:38;101516.19;;;25.45;53.84
4705;BME280;2366;51.332;6.610;2023-06-22T04:08:04;101511.81;;;25.27;53.97
4705;BME280;2366;51.332;6.610;2023-06-22T04:10:30;101514.50;;;25.27;54.15
4705;BME280;2366;51.332;6.610;2023-06-22T04:12:55;101521.63;;;25.28;54.11
4705;BME280;2366;51.332;6.610;2023-06-22T04:15:21;101517.38;;;25.26;54.18
4705;BME280;2366;51.332;6.610;2023-06-22T04:17:46;101524.00;;;25.23;54.30
4705;BME280;2366;51.332;6.610;2023-06-22T04:20:12;101514.84;;;25.24;54.33
4705;BME280;2366;51.332;6.610;2023-06-22T04:22:37;101520.94;;;25.26;54.33
4705;BME280;2366;51.332;6.610;2023-06-22T04:25:03;101522.31;;;25.22;54.31
4705;BME280;2366;51.332;6.610;2023-06-22T04:27:28;101521.94;;;25.09;54.82
4705;BME280;2366;51.332;6.610;2023-06-22T04:29:53;101520.94;;;25.10;54.71
4705;BME280;2366;51.332;6.610;2023-06-22T04:32:19;101518.22;;;25.10;54.76
4705;BME280;2366;51.332;6.610;2023-06-22T04:34:44;101525.00;;;25.06;54.86
4705;BME280;2366;51.332;6.610;2023-06-22T04:37:10;101518.22;;;25.01;54.76
4705;BME280;2366;51.332;6.610;2023-06-22T04:39:40;101514.31;;;25.04;54.80
4705;BME280;2366;51.332;6.610;2023-06-22T04:42:06;101523.97;;;25.07;54.89
4705;BME280;2366;51.332;6.610;2023-06-22T04:44:31;101521.94;;;25.09;54.73
4705;BME280;2366;51.332;6.610;2023-06-22T04:46:58;101518.91;;;25.04;54.84
4705;BME280;2366;51.332;6.610;2023-06-22T04:49:29;101517.72;;;25.06;55.09
4705;BME280;2366;51.332;6.610;2023-06-22T04:52:08;101520.94;;;25.10;54.78
4705;BME280;2366;51.332;6.610;2023-06-22T04:54:35;101520.25;;;25.08;54.80
4705;BME280;2366;51.332;6.610;2023-06-22T04:57:05;101518.22;;;25.10;54.94
4705;BME280;2366;51.332;6.610;2023-06-22T04:59:35;101516.19;;;25.04;55.28
4705;BME280;2366;51.332;6.610;2023-06-22T05:02:01;101519.41;;;25.07;55.04
4705;BME280;2366;51.332;6.610;2023-06-22T05:04:28;101516.34;;;25.10;55.06
4705;BME280;2366;51.332;6.610;2023-06-22T05:06:57;101517.56;;;25.16;54.80
4705;BME280;2366;51.332;6.610;2023-06-22T05:09:23;101505.16;;;25.13;55.04
4705;BME280;2366;51.332;6.610;2023-06-22T05:11:50;101510.78;;;25.12;55.24
4705;BME280;2366;51.332;6.610;2023-06-22T05:14:15;101509.06;;;25.11;55.04
4705;BME280;2366;51.332;6.610;2023-06-22T05:16:42;101513.81;;;25.17;55.12
4705;BME280;2366;51.332;6.610;2023-06-22T05:19:13;101510.09;;;25.18;54.89
4705;BME280;2366;51.332;6.610;2023-06-22T05:21:39;101511.09;;;25.17;55.39
4705;BME280;2366;51.332;6.610;2023-06-22T05:24:04;101509.06;;;25.19;56.02
4705;BME280;2366;51.332;6.610;2023-06-22T05:26:32;101512.13;;;25.16;56.30
4705;BME280;2366;51.332;6.610;2023-06-22T05:28:58;101510.09;;;25.01;56.58
4705;BME280;2366;51.332;6.610;2023-06-22T05:31:24;101516.19;;;25.04;56.66
4705;BME280;2366;51.332;6.610;2023-06-22T05:33:51;101512.63;;;25.11;56.37
4705;BME280;2366;51.332;6.610;2023-06-22T05:36:17;101526.38;;;25.18;55.95
4705;BME280;2366;51.332;6.610;2023-06-22T05:38:45;101527.72;;;25.22;55.59
4705;BME280;2366;51.332;6.610;2023-06-22T05:41:10;101528.25;;;25.26;55.75
4705;BME280;2366;51.332;6.610;2023-06-22T05:43:36;101529.75;;;25.28;55.61
4705;BME280;2366;51.332;6.610;2023-06-22T05:46:02;101540.97;;;25.33;55.51
4705;BME280;2366;51.332;6.610;2023-06-22T05:48:27;101538.41;;;25.32;55.26
4705;BME280;2366;51.332;6.610;2023-06-22T05:50:53;101539.59;;;25.29;55.29
4705;BME280;2366;51.332;6.610;2023-06-22T05:53:19;101533.81;;;25.32;55.21
4705;BME280;2366;51.332;6.610;2023-06-22T05:55:44;101532.78;;;25.41;55.12
4705;BME280;2366;51.332;6.610;2023-06-22T05:58:09;101532.47;;;25.45;54.93
4705;BME280;2366;51.332;6.610;2023-06-22T06:00:35;101530.91;;;25.50;54.85
4705;BME280;2366;51.332;6.610;2023-06-22T06:03:01;101529.75;;;25.53;54.36
4705;BME280;2366;51.332;6.610;2023-06-22T06:05:35;101535.66;;;25.56;54.02
4705;BME280;2366;51.332;6.610;2023-06-22T06:08:01;101536.69;;;25.64;54.19
4705;BME280;2366;51.332;6.610;2023-06-22T06:10:27;101527.81;;;25.70;53.67
4705;BME280;2366;51.332;6.610;2023-06-22T06:12:55;101524.22;;;25.77;53.71
4705;BME280;2366;51.332;6.610;2023-06-22T06:15:20;101534.25;;;25.85;53.26
4705;BME280;2366;51.332;6.610;2023-06-22T06:17:50;101530.31;;;25.88;52.74
4705;BME280;2366;51.332;6.610;2023-06-22T06:20:19;101541.56;;;25.76;52.97
4705;BME280;2366;51.332;6.610;2023-06-22T06:22:45;101541.19;;;25.79;52.76
4705;BME280;2366;51.332;6.610;2023-06-22T06:25:11;101539.16;;;25.81;52.13
4705;BME280;2366;51.332;6.610;2023-06-22T06:27:42;101528.28;;;25.81;52.01
4705;BME280;2366;51.332;6.610;2023-06-22T06:30:07;101535.06;;;25.86;51.93
4705;BME280;2366;51.332;6.610;2023-06-22T06:32:33;101532.03;;;25.80;51.66
4705;BME280;2366;51.332;6.610;2023-06-22T06:34:58;101535.25;;;25.92;51.36
4705;BME280;2366;51.332;6.610;2023-06-22T06:37:23;101533.03;;;25.88;51.51
4705;BME280;2366;51.332;6.610;2023-06-22T06:39:49;101535.41;;;25.99;50.65
4705;BME280;2366;51.332;6.610;2023-06-22T06:42:14;101531.94;;;26.13;50.37
4705;BME280;2366;51.332;6.610;2023-06-22T06:44:39;101535.25;;;26.32;49.87
4705;BME280;2366;51.332;6.610;2023-06-22T06:47:05;101528.78;;;26.33;49.38
4705;BME280;2366;51.332;6.610;2023-06-22T06:49:30;101520.53;;;26.49;49.27
4705;BME280;2366;51.332;6.610;2023-06-22T06:51:56;101520.94;;;26.69;49.24
4705;BME280;2366;51.332;6.610;2023-06-22T06:54:21;101518.09;;;26.86;48.51
4705;BME280;2366;51.332;6.610;2023-06-22T06:56:47;101513.44;;;26.94;48.09
4705;BME280;2366;51.332;6.610;2023-06-22T06:59:14;101513.56;;;26.78;48.30
4705;BME280;2366;51.332;6.610;2023-06-22T07:01:40;101508.50;;;26.75;48.18
4705;BME280;2366;51.332;6.610;2023-06-22T07:04:06;101505.28;;;26.71;48.41
4705;BME280;2366;51.332;6.610;2023-06-22T07:06:31;101501.59;;;26.64;48.61
4705;BME280;2366;51.332;6.610;2023-06-22T07:08:58;101506.31;;;26.70;48.64
4705;BME280;2366;51.332;6.610;2023-06-22T07:11:23;101502.22;;;26.74;48.41
4705;BME280;2366;51.332;6.610;2023-06-22T07:13:49;101512.13;;;26.90;47.86
4705;BME280;2366;51.332;6.610;2023-06-22T07:16:14;101502.78;;;27.08;47.29
4705;BME280;2366;51.332;6.610;2023-06-22T07:18:40;101494.38;;;27.17;46.62
4705;BME280;2366;51.332;6.610;2023-06-22T07:21:05;101494.91;;;27.13;46.69
4705;BME280;2366;51.332;6.610;2023-06-22T07:23:32;101499.59;;;27.19;46.58
4705;BME280;2366;51.332;6.610;2023-06-22T07:25:57;101502.53;;;27.17;47.05
4705;BME280;2366;51.332;6.610;2023-06-22T07:28:23;101509.13;;;27.23;47.09
4705;BME280;2366;51.332;6.610;2023-06-22T07:30:48;101512.44;;;27.33;47.05
4705;BME280;2366;51.332;6.610;2023-06-22T07:33:13;101516.66;;;27.36;47.27
4705;BME280;2366;51.332;6.610;2023-06-22T07:35:39;101509.34;;;26.98;47.90
4705;BME280;2366;51.332;6.610;2023-06-22T07:38:04;101503.13;;;26.67;49.45
4705;BME280;2366;51.332;6.610;2023-06-22T07:40:30;101495.78;;;26.44;50.21
4705;BME280;2366;51.332;6.610;2023-06-22T07:42:55;101496.44;;;26.46;50.63
4705;BME280;2366;51.332;6.610;2023-06-22T07:45:21;101493.63;;;26.54;50.57
4705;BME280;2366;51.332;6.610;2023-06-22T07:47:46;101483.78;;;26.61;51.04
4705;BME280;2366;51.332;6.610;2023-06-22T07:50:12;101479.47;;;26.44;51.94
4705;BME280;2366;51.332;6.610;2023-06-22T07:52:37;101475.16;;;26.27;52.67
4705;BME280;2366;51.332;6.610;2023-06-22T07:55:03;101466.00;;;26.19;52.92
4705;BME280;2366;51.332;6.610;2023-06-22T07:57:29;101470.44;;;26.20;53.08
4705;BME280;2366;51.332;6.610;2023-06-22T07:59:59;101467.22;;;26.17;53.57
4705;BME280;2366;51.332;6.610;2023-06-22T08:02:26;101445.66;;;26.15;55.02
4705;BME280;2366;51.332;6.610;2023-06-22T08:04:51;101438.13;;;26.26;54.93
4705;BME280;2366;51.332;6.610;2023-06-22T08:07:16;101432.72;;;26.49;53.95
4705;BME280;2366;51.332;6.610;2023-06-22T08:09:47;101415.97;;;26.83;53.08
4705;BME280;2366;51.332;6.610;2023-06-22T08:12:13;101414.53;;;27.55;51.62
4705;BME280;2366;51.332;6.610;2023-06-22T08:14:39;101412.47;;;28.08;50.57
4705;BME280;2366;51.332;6.610;2023-06-22T08:17:04;101409.25;;;28.62;48.63
4705;BME280;2366;51.332;6.610;2023-06-22T08:19:30;101409.06;;;29.14;47.84
4705;BME280;2366;51.332;6.610;2023-06-22T08:21:56;101408.13;;;30.78;45.20
4705;BME280;2366;51.332;6.610;2023-06-22T08:24:22;101407.97;;;32.41;41.32
4705;BME280;2366;51.332;6.610;2023-06-22T08:26:47;101411.44;;;33.97;38.36
4705;BME280;2366;51.332;6.610;2023-06-22T08:29:12;101416.81;;;32.75;39.61
4705;BME280;2366;51.332;6.610;2023-06-22T08:31:38;101412.31;;;31.14;43.13
4705;BME280;2366;51.332;6.610;2023-06-22T08:34:03;101412.09;;;30.35;44.94
4705;BME280;2366;51.332;6.610;2023-06-22T08:36:29;101402.94;;;29.88;46.04
4705;BME280;2366;51.332;6.610;2023-06-22T08:38:58;101401.81;;;29.69;46.19
4705;BME280;2366;51.332;6.610;2023-06-22T08:41:26;101404.19;;;29.85;46.70
4705;BME280;2366;51.332;6.610;2023-06-22T08:43:52;101410.94;;;29.96;45.94
4705;BME280;2366;51.332;6.610;2023-06-22T08:46:19;101401.28;;;29.94;46.13
4705;BME280;2366;51.332;6.610;2023-06-22T08:48:47;101395.22;;;30.18;45.71
4705;BME280;2366;51.332;6.610;2023-06-22T08:51:12;101391.50;;;30.33;45.49
4705;BME280;2366;51.332;6.610;2023-06-22T08:53:39;101395.06;;;30.53;45.24
4705;BME280;2366;51.332;6.610;2023-06-22T08:56:04;101398.22;;;30.83;44.35
4705;BME280;2366;51.332;6.610;2023-06-22T08:58:29;101388.47;;;31.47;42.97
4705;BME280;2366;51.332;6.610;2023-06-22T09:00:55;101390.75;;;31.50;42.73
4705;BME280;2366;51.332;6.610;2023-06-22T09:03:20;101387.84;;;31.39;43.10
4705;BME280;2366;51.332;6.610;2023-06-22T09:05:46;101387.59;;;31.54;42.88
4705;BME280;2366;51.332;6.610;2023-06-22T09:08:11;101386.75;;;31.46;42.91
4705;BME280;2366;51.332;6.610;2023-06-22T09:10:37;101395.78;;;32.05;42.45
4705;BME280;2366;51.332;6.610;2023-06-22T09:13:02;101393.03;;;32.69;40.86
4705;BME280;2366;51.332;6.610;2023-06-22T09:15:27;101385.59;;;32.94;40.32
4705;BME280;2366;51.332;6.610;2023-06-22T09:17:53;101385.72;;;33.06;39.86
4705;BME280;2366;51.332;6.610;2023-06-22T09:20:19;101384.72;;;34.58;37.71
4705;BME280;2366;51.332;6.610;2023-06-22T09:22:45;101384.06;;;36.20;34.28
4705;BME280;2366;51.332;6.610;2023-06-22T09:25:10;101386.44;;;37.40;32.25
4705;BME280;2366;51.332;6.610;2023-06-22T09:27:36;101380.16;;;37.06;31.86
4705;BME280;2366;51.332;6.610;2023-06-22T09:30:01;101374.47;;;35.53;34.76
4705;BME280;2366;51.332;6.610;2023-06-22T09:32:28;101369.03;;;34.59;35.51
4705;BME280;2366;51.332;6.610;2023-06-22T09:34:53;101380.19;;;34.76;36.27
4705;BME280;2366;51.332;6.610;2023-06-22T09:37:19;101368.34;;;34.99;35.91
4705;BME280;2366;51.332;6.610;2023-06-22T09:39:45;101378.88;;;34.55;36.22
4705;BME280;2366;51.332;6.610;2023-06-22T09:42:10;101365.50;;;34.70;36.04
4705;BME280;2366;51.332;6.610;2023-06-22T09:44:36;101352.53;;;34.35;36.89
4705;BME280;2366;51.332;6.610;2023-06-22T09:47:02;101350.63;;;34.06;37.19
4705;BME280;2366;51.332;6.610;2023-06-22T09:49:27;101355.88;;;34.38;36.77
4705;BME280;2366;51.332;6.610;2023-06-22T09:51:53;101347.97;;;34.29;36.66
4705;BME280;2366;51.332;6.610;2023-06-22T09:54:18;101349.28;;;34.50;36.03
4705;BME280;2366;51.332;6.610;2023-06-22T09:56:43;101340.31;;;34.31;36.52
4705;BME280;2366;51.332;6.610;2023-06-22T09:59:09;101343.78;;;34.39;35.98
4705;BME280;2366;51.332;6.610;2023-06-22T10:01:34;101340.09;;;34.45;35.90
4705;BME280;2366;51.332;6.610;2023-06-22T10:03:59;101356.81;;;34.43;35.66
4705;BME280;2366;51.332;6.610;2023-06-22T10:06:25;101342.41;;;33.27;37.47
4705;BME280;2366;51.332;6.610;2023-06-22T10:08:51;101335.63;;;32.67;38.28
4705;BME280;2366;51.332;6.610;2023-06-22T10:11:16;101332.91;;;32.36;39.23
4705;BME280;2366;51.332;6.610;2023-06-22T10:13:42;101328.91;;;32.63;39.01
4705;BME280;2366;51.332;6.610;2023-06-22T10:16:07;101331.81;;;32.43;39.39
4705;BME280;2366;51.332;6.610;2023-06-22T10:18:33;101329.47;;;32.47;39.16
4705;BME280;2366;51.332;6.610;2023-06-22T10:20:58;101327.88;;;32.32;39.05
4705;BME280;2366;51.332;6.610;2023-06-22T10:23:23;101331.78;;;31.86;40.56
4705;BME280;2366;51.332;6.610;2023-06-22T10:25:49;101328.41;;;31.46;40.98
4705;BME280;2366;51.332;6.610;2023-06-22T10:28:15;101328.44;;;31.32;41.11
4705;BME280;2366;51.332;6.610;2023-06-22T10:30:41;101336.84;;;31.44;41.31
4705;BME280;2366;51.332;6.610;2023-06-22T10:33:07;101334.97;;;31.45;41.80
4705;BME280;2366;51.332;6.610;2023-06-22T10:35:33;101347.78;;;31.38;41.39
4705;BME280;2366;51.332;6.610;2023-06-22T10:37:59;101349.59;;;30.99;42.19
4705;BME280;2366;51.332;6.610;2023-06-22T10:40:25;101356.78;;;30.46;43.05
4705;BME280;2366;51.332;6.610;2023-06-22T10:42:50;101359.69;;;30.18;43.81
4705;BME280;2366;51.332;6.610;2023-06-22T10:45:16;101369.97;;;30.16;44.36
4705;BME280;2366;51.332;6.610;2023-06-22T10:47:41;101376.56;;;30.28;44.65
4705;BME280;2366;51.332;6.610;2023-06-22T10:50:10;101378.16;;;30.03;44.95
4705;BME280;2366;51.332;6.610;2023-06-22T10:52:35;101375.84;;;29.86;45.36
4705;BME280;2366;51.332;6.610;2023-06-22T10:55:01;101373.25;;;29.72;45.67
4705;BME280;2366;51.332;6.610;2023-06-22T10:57:26;101368.38;;;29.67;46.15
4705;BME280;2366;51.332;6.610;2023-06-22T10:59:52;101362.28;;;29.65;46.38
4705;BME280;2366;51.332;6.610;2023-06-22T11:02:17;101370.88;;;29.62;46.66
4705;BME280;2366;51.332;6.610;2023-06-22T11:04:42;101369.97;;;29.48;46.97
4705;BME280;2366;51.332;6.610;2023-06-22T11:07:09;101379.88;;;29.56;47.52
4705;BME280;2366;51.332;6.610;2023-06-22T11:09:34;101372.84;;;29.33;49.38
4705;BME280;2366;51.332;6.610;2023-06-22T11:12:00;101383.59;;;29.06;50.45
4705;BME280;2366;51.332;6.610;2023-06-22T11:14:25;101381.16;;;28.90;52.34
4705;BME280;2366;51.332;6.610;2023-06-22T11:16:51;101395.06;;;28.67;53.35
4705;BME280;2366;51.332;6.610;2023-06-22T11:19:16;101400.44;;;28.17;55.56
4705;BME280;2366;51.332;6.610;2023-06-22T11:21:42;101393.44;;;27.42;59.19
4705;BME280;2366;51.332;6.610;2023-06-22T11:24:07;101393.19;;;26.84;63.89
4705;BME280;2366;51.332;6.610;2023-06-22T11:26:33;101396.50;;;26.02;68.74
4705;BME280;2366;51.332;6.610;2023-06-22T11:28:59;101411.09;;;25.14;82.40
4705;BME280;2366;51.332;6.610;2023-06-22T11:31:24;101385.72;;;24.49;89.11
4705;BME280;2366;51.332;6.610;2023-06-22T11:33:50;101362.00;;;24.18;93.48
4705;BME280;2366;51.332;6.610;2023-06-22T11:36:15;101344.22;;;24.16;97.76
4705;BME280;2366;51.332;6.610;2023-06-22T11:38:41;101347.09;;;24.14;97.20
4705;BME280;2366;51.332;6.610;2023-06-22T11:41:08;101332.69;;;24.06;98.64
4705;BME280;2366;51.332;6.610;2023-06-22T11:43:33;101311.84;;;23.90;98.39
4705;BME280;2366;51.332;6.610;2023-06-22T11:45:59;101306.25;;;23.83;100.00
4705;BME280;2366;51.332;6.610;2023-06-22T11:48:24;101288.84;;;23.86;100.00
4705;BME280;2366;51.332;6.610;2023-06-22T11:50:50;101280.38;;;23.89;100.00
4705;BME280;2366;51.332;6.610;2023-06-22T11:53:16;101282.94;;;23.90;100.00
4705;BME280;2366;51.332;6.610;2023-06-22T11:55:43;101287.31;;;23.91;100.00
4705;BME280;2366;51.332;6.610;2023-06-22T11:58:08;101288.84;;;23.94;100.00
4705;BME280;2366;51.332;6.610;2023-06-22T12:00:34;101288.16;;;24.00;100.00
4705;BME280;2366;51.332;6.610;2023-06-22T12:02:59;101277.34;;;24.00;100.00
4705;BME280;2366;51.332;6.610;2023-06-22T12:05:25;101279.38;;;24.23;100.00
4705;BME280;2366;51.332;6.610;2023-06-22T12:07:53;101277.34;;;24.25;100.00
4705;BME280;2366;51.332;6.610;2023-06-22T12:10:18;101281.38;;;24.45;100.00
4705;BME280;2366;51.332;6.610;2023-06-22T12:12:44;101271.19;;;24.80;100.00
4705;BME280;2366;51.332;6.610;2023-06-22T12:15:10;101251.09;;;25.06;100.00
4705;BME280;2366;51.332;6.610;2023-06-22T12:17:35;101241.19;;;25.29;100.00
4705;BME280;2366;51.332;6.610;2023-06-22T12:20:01;101231.91;;;25.47;100.00
4705;BME280;2366;51.332;6.610;2023-06-22T12:22:27;101217.19;;;25.41;100.00
4705;BME280;2366;51.332;6.610;2023-06-22T12:24:53;101201.44;;;25.36;100.00
4705;BME280;2366;51.332;6.610;2023-06-22T12:27:18;101194.81;;;25.08;100.00
4705;BME280;2366;51.332;6.610;2023-06-22T12:29:45;101213.81;;;24.99;100.00
4705;BME280;2366;51.332;6.610;2023-06-22T12:32:11;101218.69;;;25.12;100.00
4705;BME280;2366;51.332;6.610;2023-06-22T12:34:38;101214.31;;;25.42;100.00
4705;BME280;2366;51.332;6.610;2023-06-22T12:37:04;101216.72;;;25.37;100.00
4705;BME280;2366;51.332;6.610;2023-06-22T12:39:31;101209.09;;;25.33;100.00
4705;BME280;2366;51.332;6.610;2023-06-22T12:41:56;101200.66;;;25.28;100.00
4705;BME280;2366;51.332;6.610;2023-06-22T12:44:21;101202.78;;;25.40;100.00
4705;BME280;2366;51.332;6.610;2023-06-22T12:46:47;101208.50;;;25.46;100.00
4705;BME280;2366;51.332;6.610;2023-06-22T12:49:12;101201.44;;;25.36;100.00
4705;BME280;2366;51.332;6.610;2023-06-22T12:51:42;101204.78;;;25.47;100.00
4705;BME280;2366;51.332;6.610;2023-06-22T12:54:13;101196.44;;;25.25;100.00
4705;BME280;2366;51.332;6.610;2023-06-22T12:56:39;101198.44;;;25.31;100.00
4705;BME280;2366;51.332;6.610;2023-06-22T12:59:04;101197.97;;;25.19;100.00
4705;BME280;2366;51.332;6.610;2023-06-22T13:01:31;101199.53;;;25.14;100.00
4705;BME280;2366;51.332;6.610;2023-06-22T13:03:57;101199.41;;;25.07;100.00
4705;BME280;2366;51.332;6.610;2023-06-22T13:06:23;101184.66;;;25.01;100.00
4705;BME280;2366;51.332;6.610;2023-06-22T13:08:48;101186.44;;;24.86;100.00
4705;BME280;2366;51.332;6.610;2023-06-22T13:11:14;101185.50;;;24.71;100.00
4705;BME280;2366;51.332;6.610;2023-06-22T13:13:40;101190.91;;;24.71;100.00